Ever Imperial — 3FDL — position and weather

sailwx.info

Track history (hours):
 
Tides and Currents Weather Stations Pressure Air Temp Water Temp Dewpoint Dewpoint Depression Visibility Wind Speed Wind Dir Waves Ship Positions

Ever Imperial

Last reported at 2017-Nov-05 13:30 UTC. Time now 2017-Dec-17 12:11 UTC.
Position S 27°42' E 153°56'.
Warning: this ship's position is 41 days out of date.

Length 229 m; draft 11.7 m.

Type: Cargo ship. MMSI: 352829000.

Date/timePositionNaut miles runAvg speedWind from/ knotsBaromVisibWave heightAir tempDewpointWater temp
2017-Nov-05 13:30S 27°42' E 153°56'510.5
2017-Nov-05 12:59S 27°48' E 153°56'510.3
2017-Nov-05 12:30S 27°53' E 153°56'5 9.9
2017-Nov-05 12:00S 27°58' E 153°56'5 9.8
2017-Nov-05 11:30S 28°03' E 153°56'5 9.6
2017-Nov-05 11:00S 28°07' E 153°56'5 9.8
2017-Nov-05 10:30S 28°12' E 153°55'510.0
2017-Nov-05 10:00S 28°17' E 153°55'5 9.7
2017-Nov-05 09:30S 28°22' E 153°55'5 9.5
2017-Nov-05 09:00S 28°27' E 153°55'5 9.5
2017-Nov-05 08:30S 28°32' E 153°55'5 9.5
2017-Nov-05 08:00S 28°36' E 153°55'5 9.2
2017-Nov-05 07:29S 28°41' E 153°54'23110.3
2017-Nov-04 09:05S 32°25' E 152°44'911.3
2017-Nov-04 08:18S 32°33' E 152°40'310.9
2017-Nov-04 08:00S 32°36' E 152°38'511.0
2017-Nov-04 07:30S 32°39' E 152°33'611.2
2017-Nov-04 07:00S 32°42' E 152°27'611.4
2017-Nov-04 06:30S 32°45' E 152°22'611.4
2017-Nov-04 06:00S 32°49' E 152°17'611.6
2017-Nov-04 05:30S 32°52' E 152°11'611.6
2017-Nov-04 05:00S 32°55' E 152°05'611.1
2017-Nov-04 04:30S 32°57' E 151°59'611.1
2017-Nov-04 04:00S 32°56' E 151°52'4 7.3
2017-Nov-04 03:30S 32°55' E 151°48'2 3.2
2017-Nov-04 03:00S 32°54' E 151°46'1 2.5
2017-Nov-04 02:29S 32°53' E 151°46'0 0.0
2017-Nov-04 01:56S 32°53' E 151°46'0 0.0
2017-Nov-04 01:26S 32°53' E 151°46'0 0.0
2017-Nov-04 00:59S 32°53' E 151°46'0 0.0
2017-Nov-04 00:29S 32°53' E 151°46'0 0.0
2017-Nov-03 23:59S 32°53' E 151°46'0 0.0
2017-Nov-03 23:23S 32°53' E 151°46'0 0.0
2017-Nov-03 22:59S 32°53' E 151°46'0 0.0
2017-Nov-03 22:23S 32°53' E 151°46'0 0.0
2017-Nov-03 21:59S 32°53' E 151°46'0 0.0
2017-Nov-03 21:29S 32°53' E 151°46'0 0.0
2017-Nov-03 20:59S 32°53' E 151°46'0 0.0
2017-Nov-03 20:26S 32°53' E 151°46'0 0.0
2017-Nov-03 19:59S 32°53' E 151°46'0 0.0
2017-Nov-03 19:29S 32°53' E 151°46'0 0.0
2017-Nov-03 18:59S 32°53' E 151°46'0 0.0
2017-Nov-03 18:29S 32°53' E 151°46'0 0.0
2017-Nov-03 17:56S 32°53' E 151°46'0 0.0
2017-Nov-03 17:29S 32°53' E 151°46'0 0.0
2017-Nov-03 16:53S 32°53' E 151°46'0 0.0
2017-Nov-03 16:14S 32°53' E 151°46'0 0.0
2017-Nov-03 15:59S 32°53' E 151°46'0 0.0
2017-Nov-03 15:29S 32°53' E 151°46'0 0.0
2017-Nov-03 14:59S 32°53' E 151°46'0 0.0
2017-Nov-03 14:29S 32°53' E 151°46'0 0.0
2017-Nov-03 13:59S 32°53' E 151°46'0 0.0
2017-Nov-03 13:29S 32°53' E 151°46'0 0.0
2017-Nov-03 12:59S 32°53' E 151°46'0 0.0
2017-Nov-03 12:29S 32°53' E 151°46'0 1.0
2017-Nov-03 12:00S 32°53' E 151°46'2 4.2
2017-Nov-03 11:31S 32°55' E 151°47'4 7.8
2017-Nov-03 11:00S 32°57' E 151°51'4 7.6
2017-Nov-03 10:30S 33°00' E 151°53'3 6.7
2017-Nov-03 10:00S 33°03' E 151°55'3 6.4
2017-Nov-03 09:30S 33°06' E 151°57'4 7.0
2017-Nov-03 09:00S 33°08' E 151°60'4 7.6
2017-Nov-03 08:30S 33°10' E 152°04'0 0.7
2017-Nov-03 08:00S 33°10' E 152°04'1 2.0
2017-Nov-03 07:30S 33°09' E 152°05'1 1.9
2017-Nov-03 07:00S 33°08' E 152°05'1 1.9
2017-Nov-03 06:30S 33°08' E 152°06'1 1.7
2017-Nov-03 06:00S 33°07' E 152°07'1 1.8
2017-Nov-03 05:30S 33°07' E 152°07'1 1.6
2017-Nov-03 05:01S 33°06' E 152°08'1 1.5
2017-Nov-03 04:31S 33°06' E 152°09'1 1.5
2017-Nov-03 04:01S 33°06' E 152°10'1 1.1
2017-Nov-03 03:30S 33°06' E 152°11'1 1.0
2017-Nov-03 03:00S 33°05' E 152°11'0 0.8
2017-Nov-03 02:30S 33°05' E 152°12'0 0.6
2017-Nov-03 02:01S 33°05' E 152°12'0 0.1
2017-Nov-03 01:30S 33°05' E 152°12'0 0.1
2017-Nov-03 01:00S 33°06' E 152°12'0 0.5
2017-Nov-03 00:30S 33°06' E 152°12'0 0.4
2017-Nov-03 00:01S 33°05' E 152°11'0 0.8
2017-Nov-02 23:30S 33°06' E 152°11'0 0.8
2017-Nov-02 23:00S 33°06' E 152°11'0 0.7
2017-Nov-02 22:30S 33°06' E 152°10'0 0.8
2017-Nov-02 22:00S 33°06' E 152°10'0 0.7
2017-Nov-02 21:30S 33°06' E 152°09'0 0.9
2017-Nov-02 21:01S 33°06' E 152°09'1 1.0
2017-Nov-02 20:30S 33°06' E 152°08'1 1.1
2017-Nov-02 20:00S 33°07' E 152°08'1 1.0
2017-Nov-02 19:30S 33°07' E 152°07'0 0.9
2017-Nov-02 19:00S 33°07' E 152°07'0 0.5
2017-Nov-02 18:30S 33°07' E 152°06'0 0.6
2017-Nov-02 18:00S 33°07' E 152°06'0 0.9
2017-Nov-02 17:31S 33°06' E 152°07'0 0.7
2017-Nov-02 17:00S 33°06' E 152°07'0 1.0
2017-Nov-02 16:31S 33°06' E 152°08'0 0.7
2017-Nov-02 16:00S 33°06' E 152°08'0 0.7
2017-Nov-02 15:30S 33°06' E 152°09'0 0.6
2017-Nov-02 15:01S 33°06' E 152°09'0 0.5
2017-Nov-02 14:31S 33°06' E 152°09'0 0.4
2017-Nov-02 14:00S 33°06' E 152°09'0 0.4
2017-Nov-02 13:30S 33°06' E 152°10'0 0.5
2017-Nov-02 13:00S 33°06' E 152°10'0 0.3
2017-Nov-02 12:30S 33°06' E 152°10'0 0.5
2017-Nov-02 12:00S 33°06' E 152°10'0 0.4
2017-Nov-02 11:30S 33°06' E 152°10'0 0.5
2017-Nov-02 11:00S 33°07' E 152°10'0 0.5
2017-Nov-02 10:30S 33°07' E 152°11'0 0.7
2017-Nov-02 10:00S 33°07' E 152°11'0 0.9
2017-Nov-02 09:30S 33°08' E 152°11'1 1.0
2017-Nov-02 09:00S 33°08' E 152°11'1 1.3
2017-Nov-02 08:30S 33°09' E 152°11'1 1.3
2017-Nov-02 08:00S 33°09' E 152°11'1 1.5
2017-Nov-02 07:30S 33°10' E 152°11'1 1.5
2017-Nov-02 07:00S 33°11' E 152°11'1 1.6
2017-Nov-02 06:30S 33°12' E 152°11'0 0.7
2017-Nov-02 06:00S 33°11' E 152°11'4 7.0
2017-Nov-02 05:30S 33°08' E 152°11'4 7.1
2017-Nov-02 05:00S 33°04' E 152°12'4 7.6
2017-Nov-02 04:30S 33°01' E 152°13'2 4.3
2017-Nov-02 04:00S 32°59' E 152°14'1 1.3
2017-Nov-02 03:30S 32°59' E 152°14'1 1.3
2017-Nov-02 03:00S 32°60' E 152°14'1 1.4
2017-Nov-02 02:30S 33°01' E 152°13'1 1.3
2017-Nov-02 02:00S 33°01' E 152°13'1 1.6
2017-Nov-02 01:31S 33°02' E 152°13'1 1.6
2017-Nov-02 01:00S 33°03' E 152°13'1 1.5
2017-Nov-02 00:30S 33°03' E 152°13'1 1.6
2017-Nov-02 00:00S 33°04' E 152°12'1 1.6
2017-Nov-01 23:31S 33°05' E 152°12'1 1.5
2017-Nov-01 23:00S 33°06' E 152°12'1 1.8
2017-Nov-01 22:30S 33°07' E 152°11'1 1.7
2017-Nov-01 22:00S 33°07' E 152°11'1 1.6
2017-Nov-01 21:30S 33°08' E 152°11'1 1.7
2017-Nov-01 21:00S 33°09' E 152°10'1 1.5
2017-Nov-01 20:30S 33°10' E 152°10'1 1.5
2017-Nov-01 20:00S 33°10' E 152°09'1 1.5
2017-Nov-01 19:30S 33°11' E 152°09'1 1.3
2017-Nov-01 19:00S 33°12' E 152°09'1 1.3
2017-Nov-01 18:31S 33°12' E 152°09'14 0.9
2017-Nov-01 02:00S 33°01' E 152°19'1 2.0
2017-Nov-01 01:30S 33°01' E 152°18'1 1.9
2017-Nov-01 01:01S 33°02' E 152°17'1 1.8
2017-Nov-01 00:30S 33°03' E 152°17'1 1.8
2017-Nov-01 00:00S 33°03' E 152°16'1 1.7
2017-Oct-31 23:30S 33°04' E 152°15'1 1.6
2017-Oct-31 23:00S 33°05' E 152°15'1 1.7
2017-Oct-31 22:30S 33°05' E 152°14'1 1.6
2017-Oct-31 22:00S 33°06' E 152°13'1 1.7
2017-Oct-31 21:30S 33°07' E 152°13'1 1.6
2017-Oct-31 21:00S 33°07' E 152°12'1 1.6
2017-Oct-31 20:31S 33°08' E 152°11'1 1.4
2017-Oct-31 20:00S 33°08' E 152°11'1 1.4
2017-Oct-31 19:30S 33°09' E 152°10'1 1.4
2017-Oct-31 18:59S 33°09' E 152°10'2 3.8
2017-Oct-31 18:30S 33°08' E 152°10'2 4.9
2017-Oct-31 18:00S 33°05' E 152°11'2 4.7
2017-Oct-31 17:31S 33°03' E 152°12'2 4.8
2017-Oct-31 17:00S 33°01' E 152°14'2 4.3
2017-Oct-31 16:30S 32°59' E 152°15'1 2.6
2017-Oct-31 16:00S 32°58' E 152°15'1 1.9
2017-Oct-31 15:30S 32°58' E 152°14'1 1.9
2017-Oct-31 15:00S 32°59' E 152°14'1 1.8
2017-Oct-31 14:30S 33°00' E 152°13'1 1.9
2017-Oct-31 14:00S 33°01' E 152°13'1 1.8
2017-Oct-31 13:30S 33°02' E 152°13'1 1.7
2017-Oct-31 13:01S 33°03' E 152°12'1 1.6
2017-Oct-31 12:31S 33°04' E 152°12'1 1.6
2017-Oct-31 12:00S 33°04' E 152°11'1 1.6
2017-Oct-31 11:30S 33°05' E 152°11'1 1.5
2017-Oct-31 11:00S 33°06' E 152°11'1 1.5
2017-Oct-31 10:30S 33°06' E 152°10'1 1.6
2017-Oct-31 10:00S 33°07' E 152°10'1 1.4
2017-Oct-31 09:30S 33°08' E 152°09'2 3.2
2017-Oct-31 09:00S 33°07' E 152°08'3 6.4
2017-Oct-31 08:30S 33°05' E 152°05'3 5.1
2017-Oct-31 08:00S 33°03' E 152°03'2 4.6
2017-Oct-31 07:30S 33°01' E 152°02'2 4.7
2017-Oct-31 07:01S 32°59' E 151°60'2 4.0
2017-Oct-31 06:30S 32°57' E 152°00'4 7.2
2017-Oct-31 06:00S 32°55' E 152°04'4 7.1
2017-Oct-31 05:30S 32°53' E 152°07'3 6.4
2017-Oct-31 05:00S 32°51' E 152°11'4 7.7
2017-Oct-31 04:30S 32°49' E 152°14'4 7.3
2017-Oct-31 04:00S 32°48' E 152°18'4 7.5
2017-Oct-31 03:30S 32°46' E 152°22'3 6.9
2017-Oct-31 03:00S 32°44' E 152°26'3 6.5
2017-Oct-31 02:30S 32°42' E 152°28'3 5.4
2017-Oct-31 02:00S 32°40' E 152°31'3 5.3
2017-Oct-31 01:31S 32°39' E 152°33'3 6.2
2017-Oct-31 01:00S 32°37' E 152°36'3 6.2
2017-Oct-31 00:30S 32°35' E 152°39'4 5.9
2017-Oct-30 23:54S 32°33' E 152°43'2 6.0
2017-Oct-30 23:30S 32°32' E 152°45'204 9.9
2017-Oct-30 02:54S 29°16' E 153°54'615.5
2017-Oct-30 02:30S 29°10' E 153°56'1215.7
2017-Oct-30 01:46S 28°59' E 153°58'416.0
2017-Oct-30 01:30S 28°55' E 153°59'815.9
2017-Oct-30 01:00S 28°47' E 154°00'815.5
2017-Oct-30 00:30S 28°39' E 154°02'815.2
2017-Oct-30 00:00S 28°32' E 154°04'815.2
2017-Oct-29 23:30S 28°24' E 154°04'815.4
2017-Oct-29 23:00S 28°17' E 154°04'816.6
2017-Oct-29 22:30S 28°08' E 154°04'816.9
2017-Oct-29 22:00S 27°60' E 154°04'816.6
2017-Oct-29 21:30S 27°52' E 154°04'815.2
2017-Oct-29 21:00S 27°44' E 154°04'2314.2
2017-Oct-29 19:24S 27°21' E 154°05'714.3
2017-Oct-29 18:54S 27°14' E 154°05'914.2
2017-Oct-29 18:14S 27°05' E 154°05'414.3
2017-Oct-29 17:57S 27°00' E 154°05'714.3
2017-Oct-29 17:29S 26°54' E 154°05'1014.3
2017-Oct-29 16:46S 26°44' E 154°04'814.4
2017-Oct-29 16:13S 26°36' E 154°04'714.4
2017-Oct-29 15:43S 26°28' E 154°04'314.4
2017-Oct-29 15:30S 26°25' E 154°04'714.5
2017-Oct-29 15:01S 26°18' E 154°04'714.6
2017-Oct-29 14:30S 26°11' E 154°04'814.6
2017-Oct-29 13:58S 26°03' E 154°04'814.6
2017-Oct-29 13:26S 25°55' E 154°05'1014.4
2017-Oct-29 12:45S 25°45' E 154°05'1314.2
2017-Oct-29 11:51S 25°33' E 154°05'  
Track history (hours):
 
Tides and Currents Weather Stations Pressure Air Temp Water Temp Dewpoint Dewpoint Depression Visibility Wind Speed Wind Dir Waves Ship Positions

Ever Imperial

Last reported at 2017-Nov-05 13:30 UTC. Time now 2017-Dec-17 12:11 UTC.
Position S 27°42' E 153°56'.
Warning: this ship's position is 41 days out of date.

Length 229 m; draft 11.7 m.

Type: Cargo ship. MMSI: 352829000.

Date/timePositionNaut miles runAvg speedWind from/ knotsBaromVisibWave heightAir tempDewpointWater temp
2017-Nov-05 13:30S 27°42' E 153°56'510.5
2017-Nov-05 12:59S 27°48' E 153°56'510.3
2017-Nov-05 12:30S 27°53' E 153°56'5 9.9
2017-Nov-05 12:00S 27°58' E 153°56'5 9.8
2017-Nov-05 11:30S 28°03' E 153°56'5 9.6
2017-Nov-05 11:00S 28°07' E 153°56'5 9.8
2017-Nov-05 10:30S 28°12' E 153°55'510.0
2017-Nov-05 10:00S 28°17' E 153°55'5 9.7
2017-Nov-05 09:30S 28°22' E 153°55'5 9.5
2017-Nov-05 09:00S 28°27' E 153°55'5 9.5
2017-Nov-05 08:30S 28°32' E 153°55'5 9.5
2017-Nov-05 08:00S 28°36' E 153°55'5 9.2
2017-Nov-05 07:29S 28°41' E 153°54'23110.3
2017-Nov-04 09:05S 32°25' E 152°44'911.3
2017-Nov-04 08:18S 32°33' E 152°40'310.9
2017-Nov-04 08:00S 32°36' E 152°38'511.0
2017-Nov-04 07:30S 32°39' E 152°33'611.2
2017-Nov-04 07:00S 32°42' E 152°27'611.4
2017-Nov-04 06:30S 32°45' E 152°22'611.4
2017-Nov-04 06:00S 32°49' E 152°17'611.6
2017-Nov-04 05:30S 32°52' E 152°11'611.6
2017-Nov-04 05:00S 32°55' E 152°05'611.1
2017-Nov-04 04:30S 32°57' E 151°59'611.1
2017-Nov-04 04:00S 32°56' E 151°52'4 7.3
2017-Nov-04 03:30S 32°55' E 151°48'2 3.2
2017-Nov-04 03:00S 32°54' E 151°46'1 2.5
2017-Nov-04 02:29S 32°53' E 151°46'0 0.0
2017-Nov-04 01:56S 32°53' E 151°46'0 0.0
2017-Nov-04 01:26S 32°53' E 151°46'0 0.0
2017-Nov-04 00:59S 32°53' E 151°46'0 0.0
2017-Nov-04 00:29S 32°53' E 151°46'0 0.0
2017-Nov-03 23:59S 32°53' E 151°46'0 0.0
2017-Nov-03 23:23S 32°53' E 151°46'0 0.0
2017-Nov-03 22:59S 32°53' E 151°46'0 0.0
2017-Nov-03 22:23S 32°53' E 151°46'0 0.0
2017-Nov-03 21:59S 32°53' E 151°46'0 0.0
2017-Nov-03 21:29S 32°53' E 151°46'0 0.0
2017-Nov-03 20:59S 32°53' E 151°46'0 0.0
2017-Nov-03 20:26S 32°53' E 151°46'0 0.0
2017-Nov-03 19:59S 32°53' E 151°46'0 0.0
2017-Nov-03 19:29S 32°53' E 151°46'0 0.0
2017-Nov-03 18:59S 32°53' E 151°46'0 0.0
2017-Nov-03 18:29S 32°53' E 151°46'0 0.0
2017-Nov-03 17:56S 32°53' E 151°46'0 0.0
2017-Nov-03 17:29S 32°53' E 151°46'0 0.0
2017-Nov-03 16:53S 32°53' E 151°46'0 0.0
2017-Nov-03 16:14S 32°53' E 151°46'0 0.0
2017-Nov-03 15:59S 32°53' E 151°46'0 0.0
2017-Nov-03 15:29S 32°53' E 151°46'0 0.0
2017-Nov-03 14:59S 32°53' E 151°46'0 0.0
2017-Nov-03 14:29S 32°53' E 151°46'0 0.0
2017-Nov-03 13:59S 32°53' E 151°46'0 0.0
2017-Nov-03 13:29S 32°53' E 151°46'0 0.0
2017-Nov-03 12:59S 32°53' E 151°46'0 0.0
2017-Nov-03 12:29S 32°53' E 151°46'0 1.0
2017-Nov-03 12:00S 32°53' E 151°46'2 4.2
2017-Nov-03 11:31S 32°55' E 151°47'4 7.8
2017-Nov-03 11:00S 32°57' E 151°51'4 7.6
2017-Nov-03 10:30S 33°00' E 151°53'3 6.7
2017-Nov-03 10:00S 33°03' E 151°55'3 6.4
2017-Nov-03 09:30S 33°06' E 151°57'4 7.0
2017-Nov-03 09:00S 33°08' E 151°60'4 7.6
2017-Nov-03 08:30S 33°10' E 152°04'0 0.7
2017-Nov-03 08:00S 33°10' E 152°04'1 2.0
2017-Nov-03 07:30S 33°09' E 152°05'1 1.9
2017-Nov-03 07:00S 33°08' E 152°05'1 1.9
2017-Nov-03 06:30S 33°08' E 152°06'1 1.7
2017-Nov-03 06:00S 33°07' E 152°07'1 1.8
2017-Nov-03 05:30S 33°07' E 152°07'1 1.6
2017-Nov-03 05:01S 33°06' E 152°08'1 1.5
2017-Nov-03 04:31S 33°06' E 152°09'1 1.5
2017-Nov-03 04:01S 33°06' E 152°10'1 1.1
2017-Nov-03 03:30S 33°06' E 152°11'1 1.0
2017-Nov-03 03:00S 33°05' E 152°11'0 0.8
2017-Nov-03 02:30S 33°05' E 152°12'0 0.6
2017-Nov-03 02:01S 33°05' E 152°12'0 0.1
2017-Nov-03 01:30S 33°05' E 152°12'0 0.1
2017-Nov-03 01:00S 33°06' E 152°12'0 0.5
2017-Nov-03 00:30S 33°06' E 152°12'0 0.4
2017-Nov-03 00:01S 33°05' E 152°11'0 0.8
2017-Nov-02 23:30S 33°06' E 152°11'0 0.8
2017-Nov-02 23:00S 33°06' E 152°11'0 0.7
2017-Nov-02 22:30S 33°06' E 152°10'0 0.8
2017-Nov-02 22:00S 33°06' E 152°10'0 0.7
2017-Nov-02 21:30S 33°06' E 152°09'0 0.9
2017-Nov-02 21:01S 33°06' E 152°09'1 1.0
2017-Nov-02 20:30S 33°06' E 152°08'1 1.1
2017-Nov-02 20:00S 33°07' E 152°08'1 1.0
2017-Nov-02 19:30S 33°07' E 152°07'0 0.9
2017-Nov-02 19:00S 33°07' E 152°07'0 0.5
2017-Nov-02 18:30S 33°07' E 152°06'0 0.6
2017-Nov-02 18:00S 33°07' E 152°06'0 0.9
2017-Nov-02 17:31S 33°06' E 152°07'0 0.7
2017-Nov-02 17:00S 33°06' E 152°07'0 1.0
2017-Nov-02 16:31S 33°06' E 152°08'0 0.7
2017-Nov-02 16:00S 33°06' E 152°08'0 0.7
2017-Nov-02 15:30S 33°06' E 152°09'0 0.6
2017-Nov-02 15:01S 33°06' E 152°09'0 0.5
2017-Nov-02 14:31S 33°06' E 152°09'0 0.4
2017-Nov-02 14:00S 33°06' E 152°09'0 0.4
2017-Nov-02 13:30S 33°06' E 152°10'0 0.5
2017-Nov-02 13:00S 33°06' E 152°10'0 0.3
2017-Nov-02 12:30S 33°06' E 152°10'0 0.5
2017-Nov-02 12:00S 33°06' E 152°10'0 0.4
2017-Nov-02 11:30S 33°06' E 152°10'0 0.5
2017-Nov-02 11:00S 33°07' E 152°10'0 0.5
2017-Nov-02 10:30S 33°07' E 152°11'0 0.7
2017-Nov-02 10:00S 33°07' E 152°11'0 0.9
2017-Nov-02 09:30S 33°08' E 152°11'1 1.0
2017-Nov-02 09:00S 33°08' E 152°11'1 1.3
2017-Nov-02 08:30S 33°09' E 152°11'1 1.3
2017-Nov-02 08:00S 33°09' E 152°11'1 1.5
2017-Nov-02 07:30S 33°10' E 152°11'1 1.5
2017-Nov-02 07:00S 33°11' E 152°11'1 1.6
2017-Nov-02 06:30S 33°12' E 152°11'0 0.7
2017-Nov-02 06:00S 33°11' E 152°11'4 7.0
2017-Nov-02 05:30S 33°08' E 152°11'4 7.1
2017-Nov-02 05:00S 33°04' E 152°12'4 7.6
2017-Nov-02 04:30S 33°01' E 152°13'2 4.3
2017-Nov-02 04:00S 32°59' E 152°14'1 1.3
2017-Nov-02 03:30S 32°59' E 152°14'1 1.3
2017-Nov-02 03:00S 32°60' E 152°14'1 1.4
2017-Nov-02 02:30S 33°01' E 152°13'1 1.3
2017-Nov-02 02:00S 33°01' E 152°13'1 1.6
2017-Nov-02 01:31S 33°02' E 152°13'1 1.6
2017-Nov-02 01:00S 33°03' E 152°13'1 1.5
2017-Nov-02 00:30S 33°03' E 152°13'1 1.6
2017-Nov-02 00:00S 33°04' E 152°12'1 1.6
2017-Nov-01 23:31S 33°05' E 152°12'1 1.5
2017-Nov-01 23:00S 33°06' E 152°12'1 1.8
2017-Nov-01 22:30S 33°07' E 152°11'1 1.7
2017-Nov-01 22:00S 33°07' E 152°11'1 1.6
2017-Nov-01 21:30S 33°08' E 152°11'1 1.7
2017-Nov-01 21:00S 33°09' E 152°10'1 1.5
2017-Nov-01 20:30S 33°10' E 152°10'1 1.5
2017-Nov-01 20:00S 33°10' E 152°09'1 1.5
2017-Nov-01 19:30S 33°11' E 152°09'1 1.3
2017-Nov-01 19:00S 33°12' E 152°09'1 1.3
2017-Nov-01 18:31S 33°12' E 152°09'14 0.9
2017-Nov-01 02:00S 33°01' E 152°19'1 2.0
2017-Nov-01 01:30S 33°01' E 152°18'1 1.9
2017-Nov-01 01:01S 33°02' E 152°17'1 1.8
2017-Nov-01 00:30S 33°03' E 152°17'1 1.8
2017-Nov-01 00:00S 33°03' E 152°16'1 1.7
2017-Oct-31 23:30S 33°04' E 152°15'1 1.6
2017-Oct-31 23:00S 33°05' E 152°15'1 1.7
2017-Oct-31 22:30S 33°05' E 152°14'1 1.6
2017-Oct-31 22:00S 33°06' E 152°13'1 1.7
2017-Oct-31 21:30S 33°07' E 152°13'1 1.6
2017-Oct-31 21:00S 33°07' E 152°12'1 1.6
2017-Oct-31 20:31S 33°08' E 152°11'1 1.4
2017-Oct-31 20:00S 33°08' E 152°11'1 1.4
2017-Oct-31 19:30S 33°09' E 152°10'1 1.4
2017-Oct-31 18:59S 33°09' E 152°10'2 3.8
2017-Oct-31 18:30S 33°08' E 152°10'2 4.9
2017-Oct-31 18:00S 33°05' E 152°11'2 4.7
2017-Oct-31 17:31S 33°03' E 152°12'2 4.8
2017-Oct-31 17:00S 33°01' E 152°14'2 4.3
2017-Oct-31 16:30S 32°59' E 152°15'1 2.6
2017-Oct-31 16:00S 32°58' E 152°15'1 1.9
2017-Oct-31 15:30S 32°58' E 152°14'1 1.9
2017-Oct-31 15:00S 32°59' E 152°14'1 1.8
2017-Oct-31 14:30S 33°00' E 152°13'1 1.9
2017-Oct-31 14:00S 33°01' E 152°13'1 1.8
2017-Oct-31 13:30S 33°02' E 152°13'1 1.7
2017-Oct-31 13:01S 33°03' E 152°12'1 1.6
2017-Oct-31 12:31S 33°04' E 152°12'1 1.6
2017-Oct-31 12:00S 33°04' E 152°11'1 1.6
2017-Oct-31 11:30S 33°05' E 152°11'1 1.5
2017-Oct-31 11:00S 33°06' E 152°11'1 1.5
2017-Oct-31 10:30S 33°06' E 152°10'1 1.6
2017-Oct-31 10:00S 33°07' E 152°10'1 1.4
2017-Oct-31 09:30S 33°08' E 152°09'2 3.2
2017-Oct-31 09:00S 33°07' E 152°08'3 6.4
2017-Oct-31 08:30S 33°05' E 152°05'3 5.1
2017-Oct-31 08:00S 33°03' E 152°03'2 4.6
2017-Oct-31 07:30S 33°01' E 152°02'2 4.7
2017-Oct-31 07:01S 32°59' E 151°60'2 4.0
2017-Oct-31 06:30S 32°57' E 152°00'4 7.2
2017-Oct-31 06:00S 32°55' E 152°04'4 7.1
2017-Oct-31 05:30S 32°53' E 152°07'3 6.4
2017-Oct-31 05:00S 32°51' E 152°11'4 7.7
2017-Oct-31 04:30S 32°49' E 152°14'4 7.3
2017-Oct-31 04:00S 32°48' E 152°18'4 7.5
2017-Oct-31 03:30S 32°46' E 152°22'3 6.9
2017-Oct-31 03:00S 32°44' E 152°26'3 6.5
2017-Oct-31 02:30S 32°42' E 152°28'3 5.4
2017-Oct-31 02:00S 32°40' E 152°31'3 5.3
2017-Oct-31 01:31S 32°39' E 152°33'3 6.2
2017-Oct-31 01:00S 32°37' E 152°36'3 6.2
2017-Oct-31 00:30S 32°35' E 152°39'4 5.9
2017-Oct-30 23:54S 32°33' E 152°43'2 6.0
2017-Oct-30 23:30S 32°32' E 152°45'204 9.9
2017-Oct-30 02:54S 29°16' E 153°54'615.5
2017-Oct-30 02:30S 29°10' E 153°56'1215.7
2017-Oct-30 01:46S 28°59' E 153°58'416.0
2017-Oct-30 01:30S 28°55' E 153°59'815.9
2017-Oct-30 01:00S 28°47' E 154°00'815.5
2017-Oct-30 00:30S 28°39' E 154°02'815.2
2017-Oct-30 00:00S 28°32' E 154°04'815.2
2017-Oct-29 23:30S 28°24' E 154°04'815.4
2017-Oct-29 23:00S 28°17' E 154°04'816.6
2017-Oct-29 22:30S 28°08' E 154°04'816.9
2017-Oct-29 22:00S 27°60' E 154°04'816.6
2017-Oct-29 21:30S 27°52' E 154°04'815.2
2017-Oct-29 21:00S 27°44' E 154°04'2314.2
2017-Oct-29 19:24S 27°21' E 154°05'714.3
2017-Oct-29 18:54S 27°14' E 154°05'914.2
2017-Oct-29 18:14S 27°05' E 154°05'414.3
2017-Oct-29 17:57S 27°00' E 154°05'714.3
2017-Oct-29 17:29S 26°54' E 154°05'1014.3
2017-Oct-29 16:46S 26°44' E 154°04'814.4
2017-Oct-29 16:13S 26°36' E 154°04'714.4
2017-Oct-29 15:43S 26°28' E 154°04'314.4
2017-Oct-29 15:30S 26°25' E 154°04'714.5
2017-Oct-29 15:01S 26°18' E 154°04'714.6
2017-Oct-29 14:30S 26°11' E 154°04'814.6
2017-Oct-29 13:58S 26°03' E 154°04'814.6
2017-Oct-29 13:26S 25°55' E 154°05'1014.4
2017-Oct-29 12:45S 25°45' E 154°05'1314.2
2017-Oct-29 11:51S 25°33' E 154°05'  

Dump ship's entire track history